createdAt,value
2018-07-25T00:01:17.928Z,9.10
2018-07-25T00:03:45.863Z,9.25
2018-07-25T00:06:13.824Z,9.25
2018-07-25T00:08:41.782Z,9.13
2018-07-25T00:11:09.769Z,9.40
2018-07-25T00:13:37.898Z,9.35
2018-07-25T00:16:06.153Z,9.33
2018-07-25T00:18:34.132Z,9.38
2018-07-25T00:21:02.157Z,9.65
2018-07-25T00:23:30.188Z,9.75
2018-07-25T00:25:58.194Z,9.88
2018-07-25T00:28:26.145Z,9.20
2018-07-25T00:30:54.114Z,9.63
2018-07-25T00:33:22.223Z,9.40
2018-07-25T00:35:50.205Z,9.60
2018-07-25T00:38:18.262Z,9.50
2018-07-25T00:40:46.304Z,9.93
2018-07-25T00:43:14.460Z,10.20
2018-07-25T00:45:42.414Z,9.83
2018-07-25T00:48:10.488Z,9.80
2018-07-25T00:50:38.598Z,9.53
2018-07-25T00:53:06.608Z,9.90
2018-07-25T00:55:34.591Z,9.65
2018-07-25T00:58:02.538Z,9.65
2018-07-25T01:00:30.532Z,9.78
2018-07-25T01:02:58.790Z,9.50
2018-07-25T01:05:26.822Z,9.95
2018-07-25T01:07:54.859Z,9.40
2018-07-25T01:10:22.864Z,9.55
2018-07-25T01:12:50.812Z,9.43
2018-07-25T01:15:18.864Z,10.13
2018-07-25T01:17:46.846Z,9.88
2018-07-25T01:20:14.802Z,10.13
2018-07-25T01:22:42.750Z,10.68
2018-07-25T01:25:10.755Z,9.73
2018-07-25T01:27:38.714Z,9.30
2018-07-25T01:30:06.896Z,9.93
2018-07-25T01:32:35.077Z,10.38
2018-07-25T01:35:03.201Z,9.70
2018-07-25T01:37:31.320Z,9.80
2018-07-25T01:39:59.410Z,9.90
2018-07-25T01:42:27.491Z,10.10
2018-07-25T01:44:55.556Z,9.93
2018-07-25T01:47:23.512Z,10.08
2018-07-25T01:49:51.516Z,8.98
2018-07-25T01:52:19.559Z,9.48
2018-07-25T01:54:47.478Z,9.43
2018-07-25T01:57:15.505Z,9.38
2018-07-25T01:59:43.459Z,9.73
2018-07-25T02:02:11.618Z,9.55
2018-07-25T02:04:39.576Z,9.80
2018-07-25T02:07:07.610Z,10.23
2018-07-25T02:09:35.521Z,9.40
2018-07-25T02:12:03.486Z,9.65
2018-07-25T02:14:31.533Z,9.63
2018-07-25T02:16:59.651Z,9.93
2018-07-25T02:19:27.694Z,9.85
2018-07-25T02:21:55.886Z,9.68
2018-07-25T02:24:23.882Z,10.08
2018-07-25T02:26:51.970Z,9.73
2018-07-25T02:29:20.071Z,9.50
2018-07-25T02:31:48.035Z,10.18
2018-07-25T02:34:20.876Z,10.00
2018-07-25T02:36:49.735Z,10.03
2018-07-25T02:39:17.749Z,10.00
2018-07-25T02:41:45.774Z,10.13
2018-07-25T02:44:14.431Z,9.95
2018-07-25T02:46:42.524Z,9.85
2018-07-25T02:49:10.788Z,9.80
2018-07-25T02:51:38.773Z,9.83
2018-07-25T02:54:07.170Z,9.65
2018-07-25T02:56:35.086Z,9.60
2018-07-25T02:59:04.107Z,9.23
2018-07-25T03:01:32.150Z,9.60
2018-07-25T03:04:00.472Z,9.18
2018-07-25T03:06:28.525Z,9.40
2018-07-25T03:08:56.598Z,8.65
2018-07-25T03:11:24.582Z,8.68
2018-07-25T03:13:52.644Z,8.48
2018-07-25T03:16:20.660Z,8.58
2018-07-25T03:18:48.670Z,8.63
2018-07-25T03:21:16.742Z,7.80
2018-07-25T03:23:44.773Z,8.70
2018-07-25T03:26:12.707Z,8.15
2018-07-25T03:28:40.682Z,8.35
2018-07-25T03:31:08.786Z,9.20
2018-07-25T03:33:36.930Z,9.08
2018-07-25T03:36:04.932Z,7.65
2018-07-25T03:38:33.134Z,6.92
2018-07-25T03:41:01.152Z,7.78
2018-07-25T03:43:29.251Z,8.30
2018-07-25T03:45:57.278Z,8.30
2018-07-25T03:48:25.344Z,8.13
2018-07-25T03:50:53.422Z,8.43
2018-07-25T03:53:21.440Z,8.60
2018-07-25T03:55:49.495Z,7.50
2018-07-25T03:58:17.552Z,8.08
2018-07-25T04:00:45.540Z,7.78
2018-07-25T04:03:13.575Z,7.72
2018-07-25T04:05:42.604Z,7.92
2018-07-25T04:08:10.608Z,8.05
2018-07-25T04:10:38.736Z,8.55
2018-07-25T04:13:06.858Z,8.03
2018-07-25T04:15:34.838Z,7.90
2018-07-25T04:18:02.877Z,7.65
2018-07-25T04:20:30.871Z,8.45
2018-07-25T04:22:58.962Z,8.10
2018-07-25T04:25:27.211Z,7.80
2018-07-25T04:27:55.321Z,8.50
2018-07-25T04:30:23.330Z,8.15
2018-07-25T04:32:51.531Z,8.23
2018-07-25T04:35:19.523Z,7.67
2018-07-25T04:37:47.500Z,7.95
2018-07-25T04:40:15.539Z,8.30
2018-07-25T04:42:43.492Z,8.58
2018-07-25T04:45:11.602Z,8.68
2018-07-25T04:47:40.177Z,8.40
2018-07-25T04:50:08.560Z,8.33
2018-07-25T04:52:37.110Z,8.33
2018-07-25T04:55:05.310Z,9.00
2018-07-25T04:57:33.496Z,7.95
2018-07-25T05:00:01.608Z,7.47
2018-07-25T05:02:29.643Z,8.60
2018-07-25T05:04:57.872Z,8.03
2018-07-25T05:07:25.830Z,8.35
2018-07-25T05:09:53.784Z,8.13
2018-07-25T05:12:21.754Z,7.42
2018-07-25T05:14:49.673Z,8.43
2018-07-25T05:17:17.795Z,8.10
2018-07-25T05:19:45.797Z,8.90
2018-07-25T05:22:13.882Z,8.85
2018-07-25T05:24:41.953Z,8.78
2018-07-25T05:27:09.896Z,8.48
2018-07-25T05:29:38.018Z,7.92
2018-07-25T05:32:05.971Z,8.08
2018-07-25T05:34:34.111Z,7.60
2018-07-25T05:37:02.225Z,8.18
2018-07-25T05:39:30.337Z,7.60
2018-07-25T05:41:58.615Z,8.63
2018-07-25T05:44:26.657Z,8.95
2018-07-25T05:46:54.786Z,8.60
2018-07-25T05:49:22.912Z,8.35
2018-07-25T05:51:50.979Z,8.58
2018-07-25T05:54:19.005Z,8.10
2018-07-25T05:56:47.073Z,8.75
2018-07-25T05:59:15.145Z,9.00
2018-07-25T06:01:43.235Z,7.75
2018-07-25T06:04:11.326Z,7.75
2018-07-25T06:06:39.429Z,8.30
2018-07-25T06:09:09.234Z,8.55
2018-07-25T06:11:37.601Z,8.38
2018-07-25T06:14:05.625Z,8.45
2018-07-25T06:16:33.757Z,7.75
2018-07-25T06:19:01.875Z,8.00
2018-07-25T06:21:29.845Z,8.40
2018-07-25T06:23:58.047Z,8.38
2018-07-25T06:26:26.084Z,7.60
2018-07-25T06:28:54.167Z,8.30
2018-07-25T06:31:22.461Z,7.67
2018-07-25T06:33:50.609Z,8.30
2018-07-25T06:36:18.602Z,8.05
2018-07-25T06:38:46.728Z,8.20
2018-07-25T06:41:14.903Z,7.78
2018-07-25T06:43:43.035Z,7.67
2018-07-25T06:46:11.061Z,7.60
2018-07-25T06:48:39.136Z,8.08
2018-07-25T06:51:07.487Z,7.50
2018-07-25T06:53:35.547Z,8.03
2018-07-25T06:56:03.563Z,7.75
2018-07-25T06:58:31.978Z,8.35
2018-07-25T07:01:00.023Z,8.25
2018-07-25T07:03:28.058Z,8.35
2018-07-25T07:05:56.059Z,7.78
2018-07-25T07:08:24.124Z,7.83
2018-07-25T07:10:52.323Z,7.60
2018-07-25T07:13:20.395Z,8.20
2018-07-25T07:15:48.590Z,7.80
2018-07-25T07:18:16.525Z,7.75
2018-07-25T07:20:44.543Z,8.43
2018-07-25T07:23:12.707Z,8.05
2018-07-25T07:25:40.833Z,8.15
2018-07-25T07:28:08.929Z,8.63
2018-07-25T07:30:37.191Z,8.08
2018-07-25T07:33:05.330Z,7.72
2018-07-25T07:35:33.425Z,8.18
2018-07-25T07:38:01.495Z,8.58
2018-07-25T07:40:29.554Z,7.85
2018-07-25T07:42:57.622Z,7.80
2018-07-25T07:45:25.716Z,8.28
2018-07-25T07:47:53.809Z,8.30
2018-07-25T07:50:21.930Z,8.18
2018-07-25T07:52:50.019Z,7.62
2018-07-25T07:55:18.033Z,8.70
2018-07-25T07:57:46.005Z,7.85
2018-07-25T08:00:14.027Z,8.43
2018-07-25T08:02:42.121Z,8.13
2018-07-25T08:05:10.124Z,8.30
2018-07-25T08:07:38.270Z,7.97
2018-07-25T08:10:06.477Z,8.05
2018-07-25T08:12:34.463Z,8.00
2018-07-25T08:15:03.164Z,8.48
2018-07-25T08:17:31.169Z,8.28
2018-07-25T08:19:59.249Z,7.40
2018-07-25T08:22:27.320Z,6.83
2018-07-25T08:24:55.323Z,6.05
2018-07-25T08:27:23.532Z,7.05
2018-07-25T08:29:51.642Z,6.25
2018-07-25T08:32:19.707Z,6.10
2018-07-25T08:34:47.909Z,6.78
2018-07-25T08:37:15.995Z,6.92
2018-07-25T08:39:44.033Z,6.87
2018-07-25T08:42:12.135Z,7.10
2018-07-25T08:44:40.176Z,5.97
2018-07-25T08:47:08.255Z,6.30
2018-07-25T08:49:36.226Z,6.03
2018-07-25T08:52:04.312Z,6.30
2018-07-25T08:54:32.378Z,5.50
2018-07-25T08:57:00.558Z,6.03
2018-07-25T08:59:28.568Z,6.10
2018-07-25T09:01:56.762Z,5.75
2018-07-25T09:04:24.823Z,5.30
2018-07-25T09:06:53.205Z,5.35
2018-07-25T09:09:21.303Z,5.30
2018-07-25T09:11:49.474Z,5.45
2018-07-25T09:14:17.503Z,5.55
2018-07-25T09:16:45.654Z,5.72
2018-07-25T09:19:13.559Z,5.37
2018-07-25T09:21:41.601Z,5.97
2018-07-25T09:24:09.574Z,5.55
2018-07-25T09:26:37.868Z,6.00
2018-07-25T09:29:05.927Z,5.87
2018-07-25T09:31:33.905Z,5.30
2018-07-25T09:34:02.092Z,5.58
2018-07-25T09:36:30.178Z,5.60
2018-07-25T09:38:58.230Z,5.17
2018-07-25T09:41:26.240Z,4.78
2018-07-25T09:43:54.533Z,5.30
2018-07-25T09:46:22.546Z,5.30
2018-07-25T09:48:50.535Z,4.90
2018-07-25T09:51:18.610Z,5.12
2018-07-25T09:53:46.562Z,4.58
2018-07-25T09:56:14.595Z,5.28
2018-07-25T09:58:42.701Z,5.30
2018-07-25T10:01:10.832Z,4.87
2018-07-25T10:03:38.893Z,4.90
2018-07-25T10:06:06.965Z,4.83
2018-07-25T10:08:35.095Z,4.40
2018-07-25T10:11:05.737Z,4.10
2018-07-25T10:13:33.832Z,4.60
2018-07-25T10:16:02.526Z,4.67
2018-07-25T10:18:30.450Z,3.98
2018-07-25T10:20:58.668Z,4.28
2018-07-25T10:23:26.819Z,4.25
2018-07-25T10:25:56.187Z,4.25
2018-07-25T10:28:24.288Z,4.80
2018-07-25T10:30:52.303Z,4.37
2018-07-25T10:33:20.393Z,4.35
2018-07-25T10:35:48.452Z,4.45
2018-07-25T10:38:16.749Z,4.33
2018-07-25T10:40:44.861Z,4.55
2018-07-25T10:43:12.895Z,4.37
2018-07-25T10:45:41.025Z,4.40
2018-07-25T10:48:09.170Z,3.80
2018-07-25T10:50:37.294Z,4.17
2018-07-25T10:53:06.675Z,4.10
2018-07-25T10:55:34.861Z,3.75
2018-07-25T10:58:03.061Z,3.87
2018-07-25T11:00:31.231Z,4.40
2018-07-25T11:02:59.182Z,3.87
2018-07-25T11:05:27.851Z,4.40
2018-07-25T11:07:56.262Z,3.87
2018-07-25T11:10:24.464Z,3.60
2018-07-25T11:12:52.437Z,3.50
2018-07-25T11:15:20.396Z,3.70
2018-07-25T11:17:48.550Z,3.58
2018-07-25T11:20:16.578Z,4.35
2018-07-25T11:22:44.618Z,4.22
2018-07-25T11:25:13.307Z,3.92
2018-07-25T11:27:41.394Z,4.45
2018-07-25T11:30:09.551Z,4.10
2018-07-25T11:32:38.958Z,4.50
2018-07-25T11:38:50.207Z,4.28
2018-07-25T11:41:22.877Z,4.08
2018-07-25T11:46:41.736Z,4.10
2018-07-25T11:49:25.222Z,4.87
2018-07-25T11:51:53.455Z,4.87
2018-07-25T11:54:21.578Z,4.92
2018-07-25T11:56:49.671Z,5.10
2018-07-25T11:59:17.675Z,5.55
2018-07-25T12:01:45.763Z,5.45
2018-07-25T12:04:14.134Z,6.10
2018-07-25T12:06:42.437Z,5.37
2018-07-25T12:09:11.428Z,5.90
2018-07-25T12:11:43.833Z,5.83
2018-07-25T12:14:12.296Z,5.42
2018-07-25T12:16:40.398Z,5.72
2018-07-25T12:19:09.106Z,5.47
2018-07-25T12:21:37.284Z,5.47
2018-07-25T12:24:05.473Z,5.62
2018-07-25T12:26:33.868Z,5.83
2018-07-25T12:29:02.276Z,5.95
2018-07-25T12:31:30.444Z,6.10
2018-07-25T12:33:58.573Z,6.10
2018-07-25T12:36:26.742Z,6.10
2018-07-25T12:38:55.068Z,5.97
2018-07-25T12:41:23.195Z,6.05
2018-07-25T12:43:51.374Z,6.37
2018-07-25T12:46:20.363Z,5.90
2018-07-25T12:48:48.543Z,5.80
2018-07-25T12:51:16.582Z,6.15
2018-07-25T12:53:44.632Z,5.70
2018-07-25T12:56:12.604Z,6.05
2018-07-25T12:58:40.819Z,7.28
2018-07-25T13:01:08.844Z,6.08
2018-07-25T13:03:36.994Z,6.25
2018-07-25T13:06:05.649Z,5.83
2018-07-25T13:08:33.629Z,5.95
2018-07-25T13:11:01.686Z,5.47
2018-07-25T13:13:29.973Z,5.40
2018-07-25T13:15:58.564Z,6.87
2018-07-25T13:18:26.574Z,6.30
2018-07-25T13:20:54.596Z,6.92
2018-07-25T13:25:59.836Z,6.95
2018-07-25T13:28:29.628Z,7.08
2018-07-25T13:30:58.303Z,7.15
2018-07-25T13:33:26.955Z,7.03
2018-07-25T13:35:57.963Z,6.87
2018-07-25T13:38:27.854Z,7.35
2018-07-25T13:40:57.618Z,6.97
2018-07-25T13:43:36.709Z,7.17
2018-07-25T13:46:05.103Z,7.50
2018-07-25T13:48:36.375Z,6.97
2018-07-25T13:51:04.569Z,7.35
2018-07-25T13:53:32.581Z,7.12
2018-07-25T13:56:00.623Z,7.10
2018-07-25T13:58:28.776Z,7.10
2018-07-25T14:00:56.933Z,7.45
2018-07-25T14:03:24.960Z,7.47
2018-07-25T14:05:53.127Z,7.87
2018-07-25T14:08:21.118Z,6.97
2018-07-25T14:10:49.383Z,7.10
2018-07-25T14:13:17.473Z,7.70
2018-07-25T14:15:45.470Z,7.08
2018-07-25T14:18:13.670Z,7.65
2018-07-25T14:20:41.740Z,7.90
2018-07-25T14:23:09.387Z,7.85
2018-07-25T14:25:37.478Z,6.92
2018-07-25T14:28:05.677Z,7.50
2018-07-25T14:30:33.886Z,7.50
2018-07-25T14:33:01.814Z,8.75
2018-07-25T14:35:30.057Z,7.47
2018-07-25T14:37:58.034Z,6.70
2018-07-25T14:40:26.233Z,7.70
2018-07-25T14:42:54.239Z,7.75
2018-07-25T14:45:22.427Z,7.33
2018-07-25T14:47:50.644Z,7.35
2018-07-25T14:50:18.928Z,9.00
2018-07-25T14:52:47.022Z,7.33
2018-07-25T14:55:36.462Z,7.53
2018-07-25T14:58:18.071Z,7.70
2018-07-25T15:00:46.165Z,6.80
2018-07-25T15:03:14.617Z,7.28
2018-07-25T15:05:42.716Z,6.85
2018-07-25T15:08:10.822Z,7.15
2018-07-25T15:10:38.888Z,6.87
2018-07-25T15:13:07.271Z,6.90
2018-07-25T15:15:35.390Z,6.97
2018-07-25T15:18:03.578Z,7.00
2018-07-25T15:20:31.693Z,6.47
2018-07-25T15:22:59.914Z,7.40
2018-07-25T15:25:29.054Z,7.03
2018-07-25T15:27:57.042Z,6.87
2018-07-25T15:30:25.314Z,7.05
2018-07-25T15:32:53.892Z,7.17
2018-07-25T15:35:22.125Z,6.45
2018-07-25T15:37:50.358Z,6.87
2018-07-25T15:40:18.361Z,6.50
2018-07-25T15:42:46.649Z,6.42
2018-07-25T15:45:15.785Z,6.67
2018-07-25T15:47:43.991Z,5.83
2018-07-25T15:50:12.250Z,6.05
2018-07-25T15:52:40.408Z,6.28
2018-07-25T15:55:08.505Z,6.30
2018-07-25T15:57:36.910Z,6.30
2018-07-25T16:00:06.725Z,6.47
2018-07-25T16:02:34.880Z,6.83
2018-07-25T16:05:03.186Z,6.90
2018-07-25T16:07:31.381Z,6.55
2018-07-25T16:09:59.642Z,6.87
2018-07-25T16:12:27.645Z,6.70
2018-07-25T16:14:56.034Z,6.80
2018-07-25T16:17:24.173Z,7.20
2018-07-25T16:19:52.374Z,6.15
2018-07-25T16:22:20.360Z,5.83
2018-07-25T16:24:48.807Z,6.70
2018-07-25T16:27:16.901Z,6.45
2018-07-25T16:29:44.968Z,6.05
2018-07-25T16:32:13.046Z,5.35
2018-07-25T16:34:41.123Z,5.50
2018-07-25T16:37:09.263Z,5.35
2018-07-25T16:39:37.311Z,5.08
2018-07-25T16:42:05.532Z,5.83
2018-07-25T16:44:33.657Z,5.08
2018-07-25T16:47:01.875Z,5.87
2018-07-25T16:49:30.051Z,6.17
2018-07-25T16:51:58.093Z,6.50
2018-07-25T16:54:26.175Z,6.60
2018-07-25T16:56:54.348Z,6.83
2018-07-25T16:59:22.432Z,6.45
2018-07-25T17:01:50.627Z,6.75
2018-07-25T17:04:18.746Z,6.75
2018-07-25T17:06:46.813Z,6.70
2018-07-25T17:09:14.932Z,6.87
2018-07-25T17:11:43.069Z,6.80
2018-07-25T17:14:11.296Z,6.90
2018-07-25T17:16:39.554Z,6.45
2018-07-25T17:19:08.237Z,6.83
2018-07-25T17:21:36.391Z,7.05
2018-07-25T17:24:04.728Z,6.40
2018-07-25T17:26:32.835Z,6.85
2018-07-25T17:29:01.372Z,7.05
2018-07-25T17:31:29.393Z,6.95
2018-07-25T17:33:57.670Z,7.60
2018-07-25T17:36:26.038Z,7.62
2018-07-25T17:38:54.171Z,7.42
2018-07-25T17:41:22.306Z,6.75
2018-07-25T17:43:50.426Z,6.53
2018-07-25T17:46:18.822Z,7.55
2018-07-25T17:48:46.957Z,6.78
2018-07-25T17:51:15.154Z,6.42
2018-07-25T17:53:43.375Z,6.87
2018-07-25T17:56:11.414Z,6.70
2018-07-25T17:58:39.604Z,6.87
2018-07-25T18:01:07.624Z,6.97
2018-07-25T18:03:35.874Z,7.22
2018-07-25T18:06:04.051Z,7.00
2018-07-25T18:08:32.235Z,7.25
2018-07-25T18:11:01.283Z,7.37
2018-07-25T18:13:34.815Z,7.70
2018-07-25T18:16:03.798Z,6.53
2018-07-25T18:18:31.966Z,7.20
2018-07-25T18:21:03.962Z,6.35
2018-07-25T18:23:32.277Z,6.92
2018-07-25T18:26:00.482Z,7.03
2018-07-25T18:28:28.747Z,6.80
2018-07-25T18:30:56.895Z,7.55
2018-07-25T18:33:25.896Z,7.87
2018-07-25T18:35:57.305Z,6.35
2018-07-25T18:38:26.042Z,6.80
2018-07-25T18:40:54.596Z,7.28
2018-07-25T18:43:22.622Z,7.05
2018-07-25T18:45:54.643Z,6.67
2018-07-25T18:48:22.603Z,7.05
2018-07-25T18:50:52.960Z,6.67
2018-07-25T18:53:36.852Z,6.35
2018-07-25T18:56:05.314Z,6.28
2018-07-25T18:58:33.931Z,6.30
2018-07-25T19:01:02.175Z,5.78
2018-07-25T19:03:30.418Z,5.90
2018-07-25T19:05:58.614Z,6.72
2018-07-25T19:08:26.753Z,6.22
2018-07-25T19:10:54.783Z,5.90
2018-07-25T19:13:28.846Z,6.58
2018-07-25T19:15:57.092Z,6.37
2018-07-25T19:18:25.218Z,6.15
2018-07-25T19:20:53.343Z,5.90
2018-07-25T19:23:21.548Z,6.17
2018-07-25T19:25:49.675Z,5.90
2018-07-25T19:28:17.870Z,5.47
2018-07-25T19:30:45.952Z,5.70
2018-07-25T19:33:14.073Z,6.03
2018-07-25T19:35:42.404Z,5.62
2018-07-25T19:38:10.587Z,5.85
2018-07-25T19:40:38.741Z,5.90
2018-07-25T19:43:06.940Z,6.17
2018-07-25T19:45:35.187Z,5.60
2018-07-25T19:48:03.432Z,4.40
2018-07-25T19:50:31.546Z,5.87
2018-07-25T19:52:59.619Z,6.37
2018-07-25T19:55:27.643Z,5.80
2018-07-25T19:57:55.812Z,6.00
2018-07-25T20:00:23.965Z,5.33
2018-07-25T20:02:52.186Z,5.40
2018-07-25T20:05:20.331Z,5.15
2018-07-25T20:07:48.364Z,5.08
2018-07-25T20:10:16.345Z,5.95
2018-07-25T20:12:44.417Z,5.30
2018-07-25T20:15:17.799Z,5.50
2018-07-25T20:17:45.840Z,5.12
2018-07-25T20:20:13.993Z,5.45
2018-07-25T20:22:42.131Z,5.70
2018-07-25T20:25:10.287Z,6.03
2018-07-25T20:27:38.845Z,5.50
2018-07-25T20:30:08.502Z,5.45
2018-07-25T20:32:36.744Z,4.95
2018-07-25T20:35:05.345Z,5.12
2018-07-25T20:37:33.612Z,5.30
2018-07-25T20:40:01.885Z,5.05
2018-07-25T20:42:30.035Z,5.37
2018-07-25T20:44:58.128Z,5.25
2018-07-25T20:47:26.406Z,5.45
2018-07-25T20:49:54.339Z,5.60
2018-07-25T20:52:22.340Z,4.78
2018-07-25T20:54:50.416Z,5.53
2018-07-25T20:57:18.438Z,5.55
2018-07-25T20:59:46.487Z,5.40
2018-07-25T21:02:14.560Z,4.53
2018-07-25T21:04:43.071Z,5.28
2018-07-25T21:07:11.139Z,5.33
2018-07-25T21:09:39.147Z,5.37
2018-07-25T21:12:07.203Z,5.30
2018-07-25T21:14:35.165Z,5.75
2018-07-25T21:17:03.333Z,5.00
2018-07-25T21:19:31.308Z,5.45
2018-07-25T21:21:59.431Z,5.10
2018-07-25T21:24:27.374Z,5.70
2018-07-25T21:26:55.332Z,4.58
2018-07-25T21:29:23.379Z,5.12
2018-07-25T21:31:51.281Z,5.12
2018-07-25T21:34:19.379Z,4.80
2018-07-25T21:36:47.421Z,4.85
2018-07-25T21:39:15.479Z,4.97
2018-07-25T21:41:43.602Z,4.65
2018-07-25T21:44:11.586Z,4.50
2018-07-25T21:46:39.603Z,4.37
2018-07-25T21:49:07.615Z,4.60
2018-07-25T21:51:35.986Z,4.33
2018-07-25T21:54:03.972Z,4.55
2018-07-25T21:56:32.491Z,4.60
2018-07-25T21:59:00.502Z,4.67
2018-07-25T22:01:28.494Z,4.42
2018-07-25T22:03:56.564Z,4.42
2018-07-25T22:06:24.540Z,4.40
2018-07-25T22:08:52.633Z,4.10
2018-07-25T22:11:20.690Z,4.45
2018-07-25T22:13:55.664Z,4.90
2018-07-25T22:16:24.800Z,4.67
2018-07-25T22:18:52.891Z,4.22
2018-07-25T22:21:20.881Z,4.45
2018-07-25T22:23:48.807Z,4.47
2018-07-25T22:26:16.842Z,4.47
2018-07-25T22:28:44.758Z,4.65
2018-07-25T22:31:12.869Z,4.70
2018-07-25T22:33:40.920Z,4.40
2018-07-25T22:36:09.475Z,4.30
2018-07-25T22:38:37.428Z,4.70
2018-07-25T22:41:05.739Z,4.28
2018-07-25T22:43:33.659Z,4.25
2018-07-25T22:46:01.850Z,4.33
2018-07-25T22:48:29.933Z,4.20
2018-07-25T22:50:58.052Z,4.25
2018-07-25T22:53:26.015Z,4.58
2018-07-25T22:55:54.105Z,4.25
2018-07-25T22:58:22.178Z,4.30
2018-07-25T23:00:50.208Z,3.92
2018-07-25T23:03:18.221Z,4.60
2018-07-25T23:05:46.192Z,4.28
2018-07-25T23:08:14.532Z,4.40
2018-07-25T23:10:42.598Z,4.62
2018-07-25T23:13:10.651Z,4.42
2018-07-25T23:15:38.763Z,4.12
2018-07-25T23:18:06.743Z,4.37
2018-07-25T23:20:34.998Z,4.58
2018-07-25T23:23:03.275Z,4.50
2018-07-25T23:25:31.213Z,4.60
2018-07-25T23:27:59.886Z,4.00
2018-07-25T23:30:29.066Z,4.50
2018-07-25T23:32:57.066Z,4.35
2018-07-25T23:35:25.118Z,4.20
2018-07-25T23:37:53.207Z,4.22
2018-07-25T23:40:21.256Z,4.28
2018-07-25T23:42:49.903Z,4.50
2018-07-25T23:45:18.612Z,4.35
2018-07-25T23:47:46.669Z,3.85
2018-07-25T23:50:14.811Z,4.20
2018-07-25T23:52:42.785Z,4.40
2018-07-25T23:55:10.818Z,4.10
2018-07-25T23:57:38.862Z,4.40
